sensor_id;sensor_type;location;lat;lon;timestamp;P1;durP1;ratioP1;P2;durP2;ratioP2
6135;SDS011;24008;42.664;23.372;2024-01-30T00:00:03;14.37;;;8.33;;
6135;SDS011;24008;42.664;23.372;2024-01-30T00:02:30;13.47;;;7.67;;
6135;SDS011;24008;42.664;23.372;2024-01-30T00:04:57;12.13;;;7.60;;
6135;SDS011;24008;42.664;23.372;2024-01-30T00:07:30;12.43;;;7.97;;
6135;SDS011;24008;42.664;23.372;2024-01-30T00:09:56;11.37;;;7.37;;
6135;SDS011;24008;42.664;23.372;2024-01-30T00:12:23;14.47;;;7.70;;
6135;SDS011;24008;42.664;23.372;2024-01-30T00:14:51;12.30;;;7.57;;
6135;SDS011;24008;42.664;23.372;2024-01-30T00:17:18;12.40;;;7.33;;
6135;SDS011;24008;42.664;23.372;2024-01-30T00:19:45;13.07;;;7.37;;
6135;SDS011;24008;42.664;23.372;2024-01-30T00:22:12;11.27;;;7.30;;
6135;SDS011;24008;42.664;23.372;2024-01-30T00:24:40;11.80;;;7.60;;
6135;SDS011;24008;42.664;23.372;2024-01-30T00:27:07;13.10;;;7.77;;
6135;SDS011;24008;42.664;23.372;2024-01-30T00:29:34;11.40;;;6.93;;
6135;SDS011;24008;42.664;23.372;2024-01-30T00:32:01;14.10;;;7.20;;
6135;SDS011;24008;42.664;23.372;2024-01-30T00:34:28;12.80;;;7.07;;
6135;SDS011;24008;42.664;23.372;2024-01-30T00:36:54;10.57;;;6.83;;
6135;SDS011;24008;42.664;23.372;2024-01-30T00:39:21;13.13;;;7.77;;
6135;SDS011;24008;42.664;23.372;2024-01-30T00:41:49;13.13;;;7.27;;
6135;SDS011;24008;42.664;23.372;2024-01-30T00:44:16;13.27;;;7.53;;
6135;SDS011;24008;42.664;23.372;2024-01-30T00:46:43;12.23;;;7.20;;
6135;SDS011;24008;42.664;23.372;2024-01-30T00:49:10;11.70;;;7.53;;
6135;SDS011;24008;42.664;23.372;2024-01-30T00:51:37;12.80;;;7.77;;
6135;SDS011;24008;42.664;23.372;2024-01-30T00:54:03;12.83;;;7.13;;
6135;SDS011;24008;42.664;23.372;2024-01-30T00:56:31;14.43;;;7.80;;
6135;SDS011;24008;42.664;23.372;2024-01-30T00:58:59;12.73;;;7.90;;
6135;SDS011;24008;42.664;23.372;2024-01-30T01:01:26;13.37;;;7.30;;
6135;SDS011;24008;42.664;23.372;2024-01-30T01:03:53;12.60;;;7.70;;
6135;SDS011;24008;42.664;23.372;2024-01-30T01:06:19;11.37;;;7.10;;
6135;SDS011;24008;42.664;23.372;2024-01-30T01:08:46;13.37;;;7.87;;
6135;SDS011;24008;42.664;23.372;2024-01-30T01:11:13;14.90;;;8.17;;
6135;SDS011;24008;42.664;23.372;2024-01-30T01:13:39;15.10;;;8.37;;
6135;SDS011;24008;42.664;23.372;2024-01-30T01:16:07;12.40;;;7.90;;
6135;SDS011;24008;42.664;23.372;2024-01-30T01:18:34;12.53;;;7.30;;
6135;SDS011;24008;42.664;23.372;2024-01-30T01:21:00;12.87;;;7.43;;
6135;SDS011;24008;42.664;23.372;2024-01-30T01:23:27;13.40;;;7.70;;
6135;SDS011;24008;42.664;23.372;2024-01-30T01:25:54;12.17;;;7.67;;
6135;SDS011;24008;42.664;23.372;2024-01-30T01:28:21;14.53;;;8.00;;
6135;SDS011;24008;42.664;23.372;2024-01-30T01:30:47;12.40;;;7.57;;
6135;SDS011;24008;42.664;23.372;2024-01-30T01:33:15;13.20;;;7.83;;
6135;SDS011;24008;42.664;23.372;2024-01-30T01:35:42;13.83;;;7.37;;
6135;SDS011;24008;42.664;23.372;2024-01-30T01:38:09;12.57;;;7.33;;
6135;SDS011;24008;42.664;23.372;2024-01-30T01:40:36;13.07;;;7.97;;
6135;SDS011;24008;42.664;23.372;2024-01-30T01:43:04;12.90;;;7.50;;
6135;SDS011;24008;42.664;23.372;2024-01-30T01:45:31;14.73;;;8.27;;
6135;SDS011;24008;42.664;23.372;2024-01-30T01:47:58;13.27;;;7.60;;
6135;SDS011;24008;42.664;23.372;2024-01-30T01:50:26;11.60;;;7.00;;
6135;SDS011;24008;42.664;23.372;2024-01-30T01:52:53;13.50;;;7.83;;
6135;SDS011;24008;42.664;23.372;2024-01-30T01:55:21;12.63;;;7.07;;
6135;SDS011;24008;42.664;23.372;2024-01-30T01:57:49;10.87;;;7.00;;
6135;SDS011;24008;42.664;23.372;2024-01-30T02:00:16;12.03;;;7.40;;
6135;SDS011;24008;42.664;23.372;2024-01-30T02:02:45;14.20;;;7.80;;
6135;SDS011;24008;42.664;23.372;2024-01-30T02:05:12;12.17;;;7.17;;
6135;SDS011;24008;42.664;23.372;2024-01-30T02:07:41;11.03;;;6.97;;
6135;SDS011;24008;42.664;23.372;2024-01-30T02:10:09;11.47;;;6.67;;
6135;SDS011;24008;42.664;23.372;2024-01-30T02:12:36;12.70;;;7.30;;
6135;SDS011;24008;42.664;23.372;2024-01-30T02:15:04;13.63;;;7.43;;
6135;SDS011;24008;42.664;23.372;2024-01-30T02:17:33;13.13;;;7.80;;
6135;SDS011;24008;42.664;23.372;2024-01-30T02:19:59;13.90;;;6.83;;
6135;SDS011;24008;42.664;23.372;2024-01-30T02:22:28;11.80;;;7.03;;
6135;SDS011;24008;42.664;23.372;2024-01-30T02:24:56;11.27;;;6.83;;
6135;SDS011;24008;42.664;23.372;2024-01-30T02:27:35;11.83;;;7.17;;
6135;SDS011;24008;42.664;23.372;2024-01-30T02:30:03;12.80;;;6.90;;
6135;SDS011;24008;42.664;23.372;2024-01-30T02:32:48;12.37;;;7.13;;
6135;SDS011;24008;42.664;23.372;2024-01-30T02:35:15;9.70;;;6.23;;
6135;SDS011;24008;42.664;23.372;2024-01-30T02:37:44;9.97;;;6.37;;
6135;SDS011;24008;42.664;23.372;2024-01-30T02:40:11;11.03;;;6.57;;
6135;SDS011;24008;42.664;23.372;2024-01-30T02:42:38;10.77;;;6.77;;
6135;SDS011;24008;42.664;23.372;2024-01-30T02:45:07;9.67;;;6.30;;
6135;SDS011;24008;42.664;23.372;2024-01-30T02:47:34;8.83;;;5.93;;
6135;SDS011;24008;42.664;23.372;2024-01-30T02:50:01;12.93;;;6.80;;
6135;SDS011;24008;42.664;23.372;2024-01-30T02:52:28;10.20;;;6.33;;
6135;SDS011;24008;42.664;23.372;2024-01-30T02:54:56;12.87;;;7.00;;
6135;SDS011;24008;42.664;23.372;2024-01-30T02:57:22;11.93;;;6.33;;
6135;SDS011;24008;42.664;23.372;2024-01-30T02:59:49;11.07;;;6.23;;
6135;SDS011;24008;42.664;23.372;2024-01-30T03:02:16;10.90;;;6.63;;
6135;SDS011;24008;42.664;23.372;2024-01-30T03:04:42;12.37;;;6.50;;
6135;SDS011;24008;42.664;23.372;2024-01-30T03:07:09;10.27;;;6.47;;
6135;SDS011;24008;42.664;23.372;2024-01-30T03:09:36;10.20;;;6.17;;
6135;SDS011;24008;42.664;23.372;2024-01-30T03:12:05;10.90;;;6.80;;
6135;SDS011;24008;42.664;23.372;2024-01-30T03:14:32;9.77;;;5.77;;
6135;SDS011;24008;42.664;23.372;2024-01-30T03:16:59;8.70;;;5.77;;
6135;SDS011;24008;42.664;23.372;2024-01-30T03:19:25;8.90;;;6.00;;
6135;SDS011;24008;42.664;23.372;2024-01-30T03:21:52;8.60;;;5.73;;
6135;SDS011;24008;42.664;23.372;2024-01-30T03:24:19;8.53;;;5.63;;
6135;SDS011;24008;42.664;23.372;2024-01-30T03:26:45;9.73;;;5.93;;
6135;SDS011;24008;42.664;23.372;2024-01-30T03:29:14;13.63;;;6.90;;
6135;SDS011;24008;42.664;23.372;2024-01-30T03:31:40;11.10;;;6.60;;
6135;SDS011;24008;42.664;23.372;2024-01-30T03:34:07;10.53;;;5.60;;
6135;SDS011;24008;42.664;23.372;2024-01-30T03:36:34;12.40;;;6.20;;
6135;SDS011;24008;42.664;23.372;2024-01-30T03:39:01;13.87;;;7.83;;
6135;SDS011;24008;42.664;23.372;2024-01-30T03:41:28;17.93;;;8.93;;
6135;SDS011;24008;42.664;23.372;2024-01-30T03:43:54;15.57;;;7.80;;
6135;SDS011;24008;42.664;23.372;2024-01-30T03:46:22;13.07;;;6.63;;
6135;SDS011;24008;42.664;23.372;2024-01-30T03:48:49;14.07;;;8.13;;
6135;SDS011;24008;42.664;23.372;2024-01-30T03:51:16;11.47;;;6.10;;
6135;SDS011;24008;42.664;23.372;2024-01-30T03:53:43;11.90;;;7.43;;
6135;SDS011;24008;42.664;23.372;2024-01-30T03:56:11;13.87;;;7.77;;
6135;SDS011;24008;42.664;23.372;2024-01-30T03:58:38;12.27;;;7.70;;
6135;SDS011;24008;42.664;23.372;2024-01-30T04:01:04;10.57;;;6.23;;
6135;SDS011;24008;42.664;23.372;2024-01-30T04:03:33;13.23;;;6.73;;
6135;SDS011;24008;42.664;23.372;2024-01-30T04:05:59;8.93;;;5.50;;
6135;SDS011;24008;42.664;23.372;2024-01-30T04:08:26;10.00;;;6.23;;
6135;SDS011;24008;42.664;23.372;2024-01-30T04:10:53;9.77;;;6.27;;
6135;SDS011;24008;42.664;23.372;2024-01-30T04:13:19;8.90;;;6.03;;
6135;SDS011;24008;42.664;23.372;2024-01-30T04:15:46;11.93;;;6.57;;
6135;SDS011;24008;42.664;23.372;2024-01-30T04:18:13;10.23;;;6.20;;
6135;SDS011;24008;42.664;23.372;2024-01-30T04:20:41;9.77;;;5.80;;
6135;SDS011;24008;42.664;23.372;2024-01-30T04:23:07;8.33;;;5.43;;
6135;SDS011;24008;42.664;23.372;2024-01-30T04:25:34;8.40;;;5.57;;
6135;SDS011;24008;42.664;23.372;2024-01-30T04:28:01;8.77;;;5.57;;
6135;SDS011;24008;42.664;23.372;2024-01-30T04:30:27;12.13;;;6.23;;
6135;SDS011;24008;42.664;23.372;2024-01-30T04:32:55;8.67;;;5.80;;
6135;SDS011;24008;42.664;23.372;2024-01-30T04:35:22;10.23;;;5.87;;
6135;SDS011;24008;42.664;23.372;2024-01-30T04:37:54;9.33;;;5.40;;
6135;SDS011;24008;42.664;23.372;2024-01-30T04:40:21;12.00;;;5.77;;
6135;SDS011;24008;42.664;23.372;2024-01-30T04:42:48;8.43;;;5.30;;
6135;SDS011;24008;42.664;23.372;2024-01-30T04:45:18;10.93;;;5.57;;
6135;SDS011;24008;42.664;23.372;2024-01-30T04:47:46;11.60;;;5.63;;
6135;SDS011;24008;42.664;23.372;2024-01-30T04:50:13;10.53;;;6.03;;
6135;SDS011;24008;42.664;23.372;2024-01-30T04:52:40;9.33;;;5.47;;
6135;SDS011;24008;42.664;23.372;2024-01-30T04:55:08;12.53;;;6.37;;
6135;SDS011;24008;42.664;23.372;2024-01-30T04:57:35;10.23;;;6.37;;
6135;SDS011;24008;42.664;23.372;2024-01-30T05:00:02;10.87;;;6.70;;
6135;SDS011;24008;42.664;23.372;2024-01-30T05:02:30;13.87;;;7.33;;
6135;SDS011;24008;42.664;23.372;2024-01-30T05:04:57;11.53;;;6.67;;
6135;SDS011;24008;42.664;23.372;2024-01-30T05:07:24;11.67;;;6.40;;
6135;SDS011;24008;42.664;23.372;2024-01-30T05:09:51;11.83;;;6.67;;
6135;SDS011;24008;42.664;23.372;2024-01-30T05:12:20;10.27;;;5.93;;
6135;SDS011;24008;42.664;23.372;2024-01-30T05:14:47;12.07;;;6.37;;
6135;SDS011;24008;42.664;23.372;2024-01-30T05:17:13;10.80;;;5.70;;
6135;SDS011;24008;42.664;23.372;2024-01-30T05:19:40;14.87;;;5.90;;
6135;SDS011;24008;42.664;23.372;2024-01-30T05:22:07;10.90;;;6.10;;
6135;SDS011;24008;42.664;23.372;2024-01-30T05:24:34;10.07;;;5.57;;
6135;SDS011;24008;42.664;23.372;2024-01-30T05:27:00;9.53;;;5.27;;
6135;SDS011;24008;42.664;23.372;2024-01-30T05:29:29;10.00;;;5.13;;
6135;SDS011;24008;42.664;23.372;2024-01-30T05:31:55;9.57;;;5.33;;
6135;SDS011;24008;42.664;23.372;2024-01-30T05:34:22;11.20;;;6.17;;
6135;SDS011;24008;42.664;23.372;2024-01-30T05:36:49;11.37;;;6.00;;
6135;SDS011;24008;42.664;23.372;2024-01-30T05:39:15;7.67;;;5.37;;
6135;SDS011;24008;42.664;23.372;2024-01-30T05:41:42;9.67;;;5.73;;
6135;SDS011;24008;42.664;23.372;2024-01-30T05:44:09;11.50;;;5.40;;
6135;SDS011;24008;42.664;23.372;2024-01-30T05:46:37;10.13;;;5.53;;
6135;SDS011;24008;42.664;23.372;2024-01-30T05:49:03;9.03;;;5.40;;
6135;SDS011;24008;42.664;23.372;2024-01-30T05:51:31;12.13;;;6.07;;
6135;SDS011;24008;42.664;23.372;2024-01-30T05:53:57;9.27;;;5.70;;
6135;SDS011;24008;42.664;23.372;2024-01-30T05:56:24;9.50;;;5.80;;
6135;SDS011;24008;42.664;23.372;2024-01-30T05:58:51;13.33;;;5.97;;
6135;SDS011;24008;42.664;23.372;2024-01-30T06:01:17;22.83;;;6.63;;
6135;SDS011;24008;42.664;23.372;2024-01-30T06:03:45;12.57;;;7.27;;
6135;SDS011;24008;42.664;23.372;2024-01-30T06:06:12;11.37;;;6.07;;
6135;SDS011;24008;42.664;23.372;2024-01-30T06:08:39;14.63;;;6.67;;
6135;SDS011;24008;42.664;23.372;2024-01-30T06:11:09;14.30;;;6.87;;
6135;SDS011;24008;42.664;23.372;2024-01-30T06:13:36;12.27;;;6.57;;
6135;SDS011;24008;42.664;23.372;2024-01-30T06:16:03;16.00;;;6.80;;
6135;SDS011;24008;42.664;23.372;2024-01-30T06:18:31;14.80;;;6.60;;
6135;SDS011;24008;42.664;23.372;2024-01-30T06:20:59;9.73;;;6.17;;
6135;SDS011;24008;42.664;23.372;2024-01-30T06:23:25;15.40;;;7.63;;
6135;SDS011;24008;42.664;23.372;2024-01-30T06:25:52;19.97;;;7.97;;
6135;SDS011;24008;42.664;23.372;2024-01-30T06:28:19;11.27;;;6.30;;
6135;SDS011;24008;42.664;23.372;2024-01-30T06:31:04;13.23;;;6.13;;
6135;SDS011;24008;42.664;23.372;2024-01-30T06:33:31;13.60;;;7.00;;
6135;SDS011;24008;42.664;23.372;2024-01-30T06:35:59;16.07;;;7.30;;
6135;SDS011;24008;42.664;23.372;2024-01-30T06:38:25;25.17;;;10.00;;
6135;SDS011;24008;42.664;23.372;2024-01-30T06:40:52;16.87;;;10.17;;
6135;SDS011;24008;42.664;23.372;2024-01-30T06:43:19;15.70;;;9.43;;
6135;SDS011;24008;42.664;23.372;2024-01-30T06:45:45;20.70;;;10.13;;
6135;SDS011;24008;42.664;23.372;2024-01-30T06:48:12;21.50;;;9.83;;
6135;SDS011;24008;42.664;23.372;2024-01-30T06:50:39;16.63;;;9.40;;
6135;SDS011;24008;42.664;23.372;2024-01-30T06:53:07;13.80;;;9.10;;
6135;SDS011;24008;42.664;23.372;2024-01-30T06:55:34;15.20;;;8.13;;
6135;SDS011;24008;42.664;23.372;2024-01-30T06:58:01;12.47;;;7.43;;
6135;SDS011;24008;42.664;23.372;2024-01-30T07:00:27;18.30;;;7.77;;
6135;SDS011;24008;42.664;23.372;2024-01-30T07:02:54;12.17;;;7.90;;
6135;SDS011;24008;42.664;23.372;2024-01-30T07:05:21;14.53;;;7.80;;
6135;SDS011;24008;42.664;23.372;2024-01-30T07:07:48;14.43;;;8.23;;
6135;SDS011;24008;42.664;23.372;2024-01-30T07:10:16;12.60;;;8.43;;
6135;SDS011;24008;42.664;23.372;2024-01-30T07:12:42;11.90;;;7.87;;
6135;SDS011;24008;42.664;23.372;2024-01-30T07:15:09;11.77;;;7.60;;
6135;SDS011;24008;42.664;23.372;2024-01-30T07:17:36;5.87;;;4.33;;
6135;SDS011;24008;42.664;23.372;2024-01-30T07:20:03;4.83;;;3.40;;
6135;SDS011;24008;42.664;23.372;2024-01-30T07:22:31;9.23;;;4.63;;
6135;SDS011;24008;42.664;23.372;2024-01-30T07:24:58;9.13;;;4.80;;
6135;SDS011;24008;42.664;23.372;2024-01-30T07:27:26;5.73;;;3.53;;
6135;SDS011;24008;42.664;23.372;2024-01-30T07:29:53;5.90;;;3.73;;
6135;SDS011;24008;42.664;23.372;2024-01-30T07:32:20;6.13;;;3.90;;
6135;SDS011;24008;42.664;23.372;2024-01-30T07:34:46;4.73;;;3.43;;
6135;SDS011;24008;42.664;23.372;2024-01-30T07:37:13;3.70;;;3.00;;
6135;SDS011;24008;42.664;23.372;2024-01-30T07:39:41;5.03;;;3.60;;
6135;SDS011;24008;42.664;23.372;2024-01-30T07:42:08;4.97;;;3.70;;
6135;SDS011;24008;42.664;23.372;2024-01-30T07:44:36;6.03;;;3.37;;
6135;SDS011;24008;42.664;23.372;2024-01-30T07:47:03;6.17;;;3.40;;
6135;SDS011;24008;42.664;23.372;2024-01-30T07:49:29;4.70;;;3.50;;
6135;SDS011;24008;42.664;23.372;2024-01-30T07:51:59;6.67;;;3.43;;
6135;SDS011;24008;42.664;23.372;2024-01-30T07:54:26;4.43;;;3.43;;
6135;SDS011;24008;42.664;23.372;2024-01-30T07:56:52;5.97;;;4.00;;
6135;SDS011;24008;42.664;23.372;2024-01-30T07:59:19;8.87;;;3.53;;
6135;SDS011;24008;42.664;23.372;2024-01-30T08:01:51;5.50;;;3.63;;
6135;SDS011;24008;42.664;23.372;2024-01-30T08:04:17;8.57;;;4.50;;
6135;SDS011;24008;42.664;23.372;2024-01-30T08:06:44;6.50;;;3.87;;
6135;SDS011;24008;42.664;23.372;2024-01-30T08:09:11;4.20;;;3.27;;
6135;SDS011;24008;42.664;23.372;2024-01-30T08:11:37;4.77;;;3.60;;
6135;SDS011;24008;42.664;23.372;2024-01-30T08:14:04;6.80;;;3.80;;
6135;SDS011;24008;42.664;23.372;2024-01-30T08:16:31;6.23;;;3.97;;
6135;SDS011;24008;42.664;23.372;2024-01-30T08:18:59;4.70;;;3.37;;
6135;SDS011;24008;42.664;23.372;2024-01-30T08:21:26;4.47;;;3.30;;
6135;SDS011;24008;42.664;23.372;2024-01-30T08:23:53;5.10;;;3.50;;
6135;SDS011;24008;42.664;23.372;2024-01-30T08:26:19;5.73;;;3.60;;
6135;SDS011;24008;42.664;23.372;2024-01-30T08:28:46;5.03;;;3.70;;
6135;SDS011;24008;42.664;23.372;2024-01-30T08:31:13;4.20;;;3.60;;
6135;SDS011;24008;42.664;23.372;2024-01-30T08:33:40;4.90;;;3.60;;
6135;SDS011;24008;42.664;23.372;2024-01-30T08:36:08;6.37;;;4.30;;
6135;SDS011;24008;42.664;23.372;2024-01-30T08:38:34;9.03;;;4.17;;
6135;SDS011;24008;42.664;23.372;2024-01-30T08:41:01;6.60;;;4.40;;
6135;SDS011;24008;42.664;23.372;2024-01-30T08:43:28;7.63;;;4.97;;
6135;SDS011;24008;42.664;23.372;2024-01-30T08:45:55;8.27;;;5.00;;
6135;SDS011;24008;42.664;23.372;2024-01-30T08:48:22;7.90;;;5.00;;
6135;SDS011;24008;42.664;23.372;2024-01-30T08:50:50;7.77;;;5.43;;
6135;SDS011;24008;42.664;23.372;2024-01-30T08:53:18;8.13;;;5.30;;
6135;SDS011;24008;42.664;23.372;2024-01-30T08:55:45;12.30;;;5.87;;
6135;SDS011;24008;42.664;23.372;2024-01-30T08:58:12;8.47;;;5.03;;
6135;SDS011;24008;42.664;23.372;2024-01-30T09:00:38;7.93;;;5.70;;
6135;SDS011;24008;42.664;23.372;2024-01-30T09:03:05;9.67;;;5.60;;
6135;SDS011;24008;42.664;23.372;2024-01-30T09:05:32;9.37;;;5.90;;
6135;SDS011;24008;42.664;23.372;2024-01-30T09:07:58;8.83;;;5.63;;
6135;SDS011;24008;42.664;23.372;2024-01-30T09:10:26;8.23;;;5.27;;
6135;SDS011;24008;42.664;23.372;2024-01-30T09:12:53;8.77;;;5.30;;
6135;SDS011;24008;42.664;23.372;2024-01-30T09:15:20;11.97;;;6.90;;
6135;SDS011;24008;42.664;23.372;2024-01-30T09:17:46;10.90;;;6.47;;
6135;SDS011;24008;42.664;23.372;2024-01-30T09:20:13;12.60;;;6.20;;
6135;SDS011;24008;42.664;23.372;2024-01-30T09:22:40;8.20;;;5.70;;
6135;SDS011;24008;42.664;23.372;2024-01-30T09:25:06;10.17;;;5.50;;
6135;SDS011;24008;42.664;23.372;2024-01-30T09:27:35;11.30;;;5.47;;
6135;SDS011;24008;42.664;23.372;2024-01-30T09:30:02;9.10;;;5.90;;
6135;SDS011;24008;42.664;23.372;2024-01-30T09:32:29;9.13;;;6.43;;
6135;SDS011;24008;42.664;23.372;2024-01-30T09:34:56;7.43;;;5.10;;
6135;SDS011;24008;42.664;23.372;2024-01-30T09:37:22;8.03;;;5.00;;
6135;SDS011;24008;42.664;23.372;2024-01-30T09:39:49;8.07;;;5.00;;
6135;SDS011;24008;42.664;23.372;2024-01-30T09:42:18;7.27;;;5.27;;
6135;SDS011;24008;42.664;23.372;2024-01-30T09:44:54;10.03;;;5.40;;
6135;SDS011;24008;42.664;23.372;2024-01-30T09:47:21;7.87;;;4.80;;
6135;SDS011;24008;42.664;23.372;2024-01-30T09:49:48;6.70;;;4.90;;
6135;SDS011;24008;42.664;23.372;2024-01-30T09:52:15;7.23;;;4.87;;
6135;SDS011;24008;42.664;23.372;2024-01-30T09:54:43;6.10;;;4.10;;
6135;SDS011;24008;42.664;23.372;2024-01-30T09:57:11;5.70;;;4.13;;
6135;SDS011;24008;42.664;23.372;2024-01-30T09:59:38;9.07;;;4.73;;
6135;SDS011;24008;42.664;23.372;2024-01-30T10:02:06;6.23;;;4.40;;
6135;SDS011;24008;42.664;23.372;2024-01-30T10:04:33;7.70;;;5.10;;
6135;SDS011;24008;42.664;23.372;2024-01-30T10:07:01;7.03;;;4.77;;
6135;SDS011;24008;42.664;23.372;2024-01-30T10:09:28;10.50;;;5.33;;
6135;SDS011;24008;42.664;23.372;2024-01-30T10:11:58;7.30;;;5.10;;
6135;SDS011;24008;42.664;23.372;2024-01-30T10:14:25;9.90;;;5.40;;
6135;SDS011;24008;42.664;23.372;2024-01-30T10:16:51;9.17;;;5.17;;
6135;SDS011;24008;42.664;23.372;2024-01-30T10:19:20;8.43;;;4.70;;
6135;SDS011;24008;42.664;23.372;2024-01-30T10:21:47;5.87;;;4.07;;
6135;SDS011;24008;42.664;23.372;2024-01-30T10:24:13;6.60;;;3.50;;
6135;SDS011;24008;42.664;23.372;2024-01-30T10:26:40;7.70;;;4.47;;
6135;SDS011;24008;42.664;23.372;2024-01-30T10:29:09;6.50;;;4.10;;
6135;SDS011;24008;42.664;23.372;2024-01-30T10:31:36;6.47;;;4.10;;
6135;SDS011;24008;42.664;23.372;2024-01-30T10:34:03;4.73;;;3.73;;
6135;SDS011;24008;42.664;23.372;2024-01-30T10:36:31;6.10;;;3.87;;
6135;SDS011;24008;42.664;23.372;2024-01-30T10:39:05;7.50;;;4.50;;
6135;SDS011;24008;42.664;23.372;2024-01-30T10:41:35;10.33;;;4.40;;
6135;SDS011;24008;42.664;23.372;2024-01-30T10:44:09;7.67;;;4.60;;
6135;SDS011;24008;42.664;23.372;2024-01-30T10:46:38;7.63;;;4.37;;
6135;SDS011;24008;42.664;23.372;2024-01-30T10:49:05;6.33;;;4.50;;
6135;SDS011;24008;42.664;23.372;2024-01-30T10:51:34;6.93;;;4.10;;
6135;SDS011;24008;42.664;23.372;2024-01-30T10:54:03;8.73;;;3.97;;
6135;SDS011;24008;42.664;23.372;2024-01-30T10:56:31;5.77;;;3.87;;
6135;SDS011;24008;42.664;23.372;2024-01-30T10:59:00;7.73;;;3.80;;
6135;SDS011;24008;42.664;23.372;2024-01-30T11:01:26;8.87;;;4.20;;
6135;SDS011;24008;42.664;23.372;2024-01-30T11:03:55;6.00;;;4.10;;
6135;SDS011;24008;42.664;23.372;2024-01-30T11:06:22;7.43;;;4.03;;
6135;SDS011;24008;42.664;23.372;2024-01-30T11:09:01;6.60;;;3.97;;
6135;SDS011;24008;42.664;23.372;2024-01-30T11:11:32;6.00;;;4.07;;
6135;SDS011;24008;42.664;23.372;2024-01-30T11:14:14;4.93;;;3.87;;
6135;SDS011;24008;42.664;23.372;2024-01-30T11:16:41;5.70;;;3.90;;
6135;SDS011;24008;42.664;23.372;2024-01-30T11:19:10;5.57;;;3.80;;
6135;SDS011;24008;42.664;23.372;2024-01-30T11:21:40;7.37;;;4.20;;
6135;SDS011;24008;42.664;23.372;2024-01-30T11:24:09;6.80;;;4.20;;
6135;SDS011;24008;42.664;23.372;2024-01-30T11:26:36;7.43;;;3.50;;
6135;SDS011;24008;42.664;23.372;2024-01-30T11:29:06;7.63;;;3.70;;
6135;SDS011;24008;42.664;23.372;2024-01-30T11:31:34;5.03;;;3.70;;
6135;SDS011;24008;42.664;23.372;2024-01-30T11:34:01;9.87;;;4.20;;
6135;SDS011;24008;42.664;23.372;2024-01-30T11:36:28;7.63;;;4.03;;
6135;SDS011;24008;42.664;23.372;2024-01-30T11:38:56;6.07;;;3.30;;
6135;SDS011;24008;42.664;23.372;2024-01-30T11:41:24;6.33;;;3.43;;
6135;SDS011;24008;42.664;23.372;2024-01-30T11:43:52;4.97;;;3.83;;
6135;SDS011;24008;42.664;23.372;2024-01-30T11:46:19;5.83;;;3.37;;
6135;SDS011;24008;42.664;23.372;2024-01-30T11:48:45;4.63;;;3.20;;
6135;SDS011;24008;42.664;23.372;2024-01-30T11:51:12;4.37;;;3.43;;
6135;SDS011;24008;42.664;23.372;2024-01-30T11:53:39;5.03;;;3.43;;
6135;SDS011;24008;42.664;23.372;2024-01-30T11:56:07;6.33;;;3.30;;
6135;SDS011;24008;42.664;23.372;2024-01-30T11:58:35;8.33;;;4.30;;
6135;SDS011;24008;42.664;23.372;2024-01-30T12:01:02;4.30;;;3.23;;
6135;SDS011;24008;42.664;23.372;2024-01-30T12:03:29;5.47;;;3.73;;
6135;SDS011;24008;42.664;23.372;2024-01-30T12:05:56;5.83;;;3.90;;
6135;SDS011;24008;42.664;23.372;2024-01-30T12:08:23;6.30;;;3.97;;
6135;SDS011;24008;42.664;23.372;2024-01-30T12:10:55;6.53;;;4.03;;
6135;SDS011;24008;42.664;23.372;2024-01-30T12:13:22;5.10;;;3.73;;
6135;SDS011;24008;42.664;23.372;2024-01-30T12:15:50;6.90;;;4.10;;
6135;SDS011;24008;42.664;23.372;2024-01-30T12:18:18;4.93;;;3.53;;
6135;SDS011;24008;42.664;23.372;2024-01-30T12:20:45;7.00;;;4.47;;
6135;SDS011;24008;42.664;23.372;2024-01-30T12:23:11;5.90;;;3.53;;
6135;SDS011;24008;42.664;23.372;2024-01-30T12:25:39;9.60;;;3.87;;
6135;SDS011;24008;42.664;23.372;2024-01-30T12:28:05;6.27;;;4.00;;
6135;SDS011;24008;42.664;23.372;2024-01-30T12:30:32;8.50;;;3.83;;
6135;SDS011;24008;42.664;23.372;2024-01-30T12:33:02;4.87;;;3.70;;
6135;SDS011;24008;42.664;23.372;2024-01-30T12:35:30;4.77;;;3.20;;
6135;SDS011;24008;42.664;23.372;2024-01-30T12:37:57;8.87;;;4.40;;
6135;SDS011;24008;42.664;23.372;2024-01-30T12:40:24;6.97;;;4.47;;
6135;SDS011;24008;42.664;23.372;2024-01-30T12:42:51;7.77;;;4.80;;
6135;SDS011;24008;42.664;23.372;2024-01-30T12:45:18;7.20;;;4.60;;
6135;SDS011;24008;42.664;23.372;2024-01-30T12:47:47;6.93;;;4.13;;
6135;SDS011;24008;42.664;23.372;2024-01-30T12:50:15;7.90;;;4.73;;
6135;SDS011;24008;42.664;23.372;2024-01-30T12:52:42;7.43;;;4.40;;
6135;SDS011;24008;42.664;23.372;2024-01-30T12:55:09;7.80;;;4.37;;
6135;SDS011;24008;42.664;23.372;2024-01-30T12:57:36;11.30;;;5.80;;
6135;SDS011;24008;42.664;23.372;2024-01-30T13:00:05;8.67;;;5.03;;
6135;SDS011;24008;42.664;23.372;2024-01-30T13:02:33;6.40;;;4.20;;
6135;SDS011;24008;42.664;23.372;2024-01-30T13:05:02;8.77;;;4.47;;
6135;SDS011;24008;42.664;23.372;2024-01-30T13:07:30;7.17;;;4.63;;
6135;SDS011;24008;42.664;23.372;2024-01-30T13:09:57;8.37;;;4.87;;
6135;SDS011;24008;42.664;23.372;2024-01-30T13:12:27;10.03;;;5.07;;
6135;SDS011;24008;42.664;23.372;2024-01-30T13:14:54;7.40;;;4.40;;
6135;SDS011;24008;42.664;23.372;2024-01-30T13:17:21;6.80;;;4.53;;
6135;SDS011;24008;42.664;23.372;2024-01-30T13:19:48;6.93;;;4.63;;
6135;SDS011;24008;42.664;23.372;2024-01-30T13:22:14;8.50;;;4.60;;
6135;SDS011;24008;42.664;23.372;2024-01-30T13:24:43;9.53;;;4.97;;
6135;SDS011;24008;42.664;23.372;2024-01-30T13:27:09;8.03;;;5.10;;
6135;SDS011;24008;42.664;23.372;2024-01-30T13:29:36;8.07;;;4.63;;
6135;SDS011;24008;42.664;23.372;2024-01-30T13:32:03;10.40;;;5.20;;
6135;SDS011;24008;42.664;23.372;2024-01-30T13:34:30;11.10;;;5.60;;
6135;SDS011;24008;42.664;23.372;2024-01-30T13:36:57;11.13;;;6.60;;
6135;SDS011;24008;42.664;23.372;2024-01-30T13:39:23;9.77;;;6.33;;
6135;SDS011;24008;42.664;23.372;2024-01-30T13:41:51;8.27;;;5.40;;
6135;SDS011;24008;42.664;23.372;2024-01-30T13:44:18;11.67;;;5.60;;
6135;SDS011;24008;42.664;23.372;2024-01-30T13:46:46;9.13;;;5.87;;
6135;SDS011;24008;42.664;23.372;2024-01-30T13:49:12;7.53;;;5.13;;
6135;SDS011;24008;42.664;23.372;2024-01-30T13:51:39;6.77;;;4.67;;
6135;SDS011;24008;42.664;23.372;2024-01-30T13:54:06;9.87;;;5.53;;
6135;SDS011;24008;42.664;23.372;2024-01-30T13:56:33;8.47;;;5.07;;
6135;SDS011;24008;42.664;23.372;2024-01-30T13:59:01;6.97;;;4.80;;
6135;SDS011;24008;42.664;23.372;2024-01-30T14:01:30;9.20;;;5.20;;
6135;SDS011;24008;42.664;23.372;2024-01-30T14:03:58;9.20;;;5.63;;
6135;SDS011;24008;42.664;23.372;2024-01-30T14:06:25;10.53;;;5.90;;
6135;SDS011;24008;42.664;23.372;2024-01-30T14:08:51;8.60;;;5.47;;
6135;SDS011;24008;42.664;23.372;2024-01-30T14:11:18;9.13;;;6.03;;
6135;SDS011;24008;42.664;23.372;2024-01-30T14:13:46;10.00;;;5.50;;
6135;SDS011;24008;42.664;23.372;2024-01-30T14:16:14;10.23;;;6.23;;
6135;SDS011;24008;42.664;23.372;2024-01-30T14:18:40;10.13;;;5.83;;
6135;SDS011;24008;42.664;23.372;2024-01-30T14:21:07;9.60;;;5.73;;
6135;SDS011;24008;42.664;23.372;2024-01-30T14:23:34;9.60;;;5.53;;
6135;SDS011;24008;42.664;23.372;2024-01-30T14:26:00;9.67;;;6.00;;
6135;SDS011;24008;42.664;23.372;2024-01-30T14:28:27;10.37;;;6.23;;
6135;SDS011;24008;42.664;23.372;2024-01-30T14:30:54;9.53;;;5.53;;
6135;SDS011;24008;42.664;23.372;2024-01-30T14:33:22;9.40;;;5.70;;
6135;SDS011;24008;42.664;23.372;2024-01-30T14:35:49;11.80;;;5.97;;
6135;SDS011;24008;42.664;23.372;2024-01-30T14:38:16;7.87;;;5.00;;
6135;SDS011;24008;42.664;23.372;2024-01-30T14:40:42;10.47;;;6.23;;